Time;durP1;ratioP1;P1;durP2;ratioP2;P2;SDS_P1;SDS_P2;PMS_P1;PMS_P2;Temp;Humidity;BMP_temperature;BMP_pressure;BME280_temperature;BME280_humidity;BME280_pressure;Samples;Min_cycle;Max_cycle;Signal;HPM_P1;HPM_P2
2021/12/11 00:01:24;;;;;;;14.77;8.48;;;;;;;;;;5023624;28;20041;-72
2021/12/11 00:04:00;;;;;;;14.02;8.23;;;;;;;;;;5005433;28;20367;-72
2021/12/11 00:06:34;;;;;;;13.32;8.80;;;;;;;;;;5022992;28;20161;-73
2021/12/11 00:09:11;;;;;;;15.18;8.27;;;;;;;;;;5005129;28;20033;-71
2021/12/11 00:11:41;;;;;;;14.00;8.75;;;;;;;;;;5023385;28;20033;-72
2021/12/11 00:14:09;;;;;;;15.63;8.25;;;;;;;;;;5023040;28;20026;-73
2021/12/11 00:16:36;;;;;;;15.07;7.93;;;;;;;;;;5023260;28;20069;-73
2021/12/11 00:19:14;;;;;;;14.35;8.52;;;;;;;;;;5023100;28;20431;-72
2021/12/11 00:21:40;;;;;;;14.65;8.63;;;;;;;;;;5022989;28;20092;-72
2021/12/11 00:24:29;;;;;;;14.00;7.95;;;;;;;;;;5022692;28;20034;-71
2021/12/11 00:27:21;;;;;;;13.70;9.05;;;;;;;;;;5022904;28;20034;-72
2021/12/11 00:29:47;;;;;;;12.85;8.43;;;;;;;;;;5022411;28;20044;-72
2021/12/11 00:32:23;;;;;;;15.15;9.05;;;;;;;;;;5021915;28;20064;-74
2021/12/11 00:34:51;;;;;;;13.02;8.20;;;;;;;;;;5004738;28;20033;-72
2021/12/11 00:37:20;;;;;;;13.13;7.93;;;;;;;;;;5022688;28;20030;-73
2021/12/11 00:39:50;;;;;;;15.82;8.40;;;;;;;;;;5022534;28;20059;-72
2021/12/11 00:42:16;;;;;;;14.98;8.93;;;;;;;;;;5004612;28;20037;-73
2021/12/11 00:44:49;;;;;;;13.38;8.27;;;;;;;;;;5022489;28;20093;-71
2021/12/11 00:47:19;;;;;;;15.20;8.60;;;;;;;;;;5022085;28;20029;-73
2021/12/11 00:49:50;;;;;;;14.35;8.40;;;;;;;;;;5004105;28;20064;-72
2021/12/11 00:52:16;;;;;;;14.77;8.75;;;;;;;;;;5004661;28;20064;-72
2021/12/11 00:54:44;;;;;;;13.55;8.38;;;;;;;;;;5022754;28;20110;-72
2021/12/11 00:57:19;;;;;;;14.43;8.45;;;;;;;;;;5022858;28;20096;-71
2021/12/11 00:59:44;;;;;;;18.30;9.02;;;;;;;;;;5022081;28;20037;-72
2021/12/11 01:02:12;;;;;;;15.38;8.75;;;;;;;;;;5021664;28;20030;-71
2021/12/11 01:04:42;;;;;;;13.82;7.82;;;;;;;;;;5022126;28;20034;-72
2021/12/11 01:07:19;;;;;;;13.60;7.78;;;;;;;;;;5022354;28;20041;-72
2021/12/11 01:09:51;;;;;;;14.43;9.18;;;;;;;;;;5022565;28;20026;-72
2021/12/11 01:12:40;;;;;;;17.98;8.30;;;;;;;;;;5022292;28;20093;-71
2021/12/11 01:15:32;;;;;;;14.82;8.45;;;;;;;;;;5022434;28;20061;-72
2021/12/11 01:20:47;;;;;;;15.25;8.20;;;;;;;;;;5026445;28;20026;-72
2021/12/11 01:23:34;;;;;;;15.35;8.23;;;;;;;;;;5026047;28;20018;-71
2021/12/11 01:26:05;;;;;;;14.68;8.73;;;;;;;;;;5008053;28;20026;-72
2021/12/11 01:28:31;;;;;;;15.80;7.93;;;;;;;;;;5025918;28;20121;-72
2021/12/11 01:30:58;;;;;;;18.45;7.82;;;;;;;;;;5007216;28;20174;-73
2021/12/11 01:33:24;;;;;;;16.95;7.57;;;;;;;;;;5007109;28;20056;-72
2021/12/11 01:35:50;;;;;;;13.45;7.53;;;;;;;;;;5025532;28;20042;-72
2021/12/11 01:38:26;;;;;;;12.68;7.47;;;;;;;;;;5025638;28;20056;-72
2021/12/11 01:40:57;;;;;;;13.70;7.72;;;;;;;;;;5025704;28;20042;-72
2021/12/11 01:43:26;;;;;;;13.43;7.93;;;;;;;;;;5007539;28;20022;-72
2021/12/11 01:45:53;;;;;;;15.55;9.05;;;;;;;;;;5025417;28;20034;-72
2021/12/11 01:48:24;;;;;;;13.13;8.43;;;;;;;;;;5024930;28;20057;-72
2021/12/11 01:50:58;;;;;;;13.63;8.40;;;;;;;;;;5025309;28;20034;-71
2021/12/11 01:53:27;;;;;;;12.93;7.68;;;;;;;;;;5025335;28;20040;-71
2021/12/11 01:56:00;;;;;;;14.93;7.60;;;;;;;;;;5025358;28;20034;-72
2021/12/11 01:58:36;;;;;;;22.43;8.40;;;;;;;;;;5007369;28;20045;-73
2021/12/11 02:01:17;;;;;;;17.13;7.60;;;;;;;;;;5025258;28;20029;-73
2021/12/11 02:03:43;;;;;;;23.30;7.43;;;;;;;;;;5007500;28;20430;-72
2021/12/11 02:06:10;;;;;;;12.80;7.80;;;;;;;;;;5025343;28;20046;-71
2021/12/11 02:08:40;;;;;;;14.75;8.13;;;;;;;;;;5025156;28;20048;-73
2021/12/11 02:11:09;;;;;;;17.08;7.38;;;;;;;;;;5007383;28;20037;-72
2021/12/11 02:13:51;;;;;;;14.52;8.20;;;;;;;;;;5006900;28;20036;-73
2021/12/11 02:16:29;;;;;;;20.23;7.95;;;;;;;;;;5007202;28;20064;-71
2021/12/11 02:18:59;;;;;;;58.30;8.63;;;;;;;;;;5024800;28;20034;-73
2021/12/11 02:21:49;;;;;;;17.67;7.55;;;;;;;;;;5007201;28;20564;-72
2021/12/11 02:24:20;;;;;;;33.38;8.18;;;;;;;;;;5016592;28;20044;-72
2021/12/11 02:26:46;;;;;;;23.25;7.47;;;;;;;;;;5024540;28;20029;-71
2021/12/11 02:29:34;;;;;;;39.88;8.48;;;;;;;;;;5023832;28;20030;-71
2021/12/11 02:32:08;;;;;;;38.20;8.35;;;;;;;;;;5023956;28;20030;-72
2021/12/11 02:34:39;;;;;;;44.97;7.47;;;;;;;;;;5006777;28;20102;-72
2021/12/11 02:37:37;;;;;;;13.85;7.55;;;;;;;;;;5024518;28;20040;-72
2021/12/11 02:40:29;;;;;;;13.75;7.53;;;;;;;;;;5006679;28;20072;-72
2021/12/11 02:42:57;;;;;;;14.07;7.25;;;;;;;;;;5024590;28;20473;-71
2021/12/11 02:45:35;;;;;;;12.95;7.55;;;;;;;;;;5024410;28;20103;-71
2021/12/11 02:48:24;;;;;;;14.25;7.70;;;;;;;;;;5006295;28;20117;-72
2021/12/11 02:51:05;;;;;;;13.25;7.88;;;;;;;;;;5006626;28;20405;-74
2021/12/11 02:53:39;;;;;;;13.55;7.45;;;;;;;;;;5023639;28;20510;-71
2021/12/11 02:56:14;;;;;;;23.65;7.88;;;;;;;;;;5024184;28;20033;-71
2021/12/11 02:58:43;;;;;;;15.07;7.88;;;;;;;;;;5006389;28;20479;-72
2021/12/11 03:01:22;;;;;;;17.38;8.65;;;;;;;;;;5006514;28;20030;-71
2021/12/11 03:03:54;;;;;;;16.50;8.38;;;;;;;;;;5023942;28;20030;-71
2021/12/11 03:06:26;;;;;;;13.23;8.00;;;;;;;;;;5024091;28;20049;-72
2021/12/11 03:08:56;;;;;;;16.75;7.72;;;;;;;;;;5023648;28;20038;-72
2021/12/11 03:11:24;;;;;;;23.90;9.02;;;;;;;;;;5023805;28;20036;-71
2021/12/11 03:13:51;;;;;;;15.55;8.63;;;;;;;;;;5023803;28;20052;-73
2021/12/11 03:16:29;;;;;;;14.35;7.85;;;;;;;;;;5023967;28;20025;-72
2021/12/11 03:18:57;;;;;;;17.00;8.75;;;;;;;;;;5006219;28;20021;-72
2021/12/11 03:21:23;;;;;;;15.75;7.68;;;;;;;;;;5023871;28;20040;-72
2021/12/11 03:23:49;;;;;;;15.90;8.85;;;;;;;;;;5023734;28;20468;-72
2021/12/11 03:26:15;;;;;;;22.20;8.80;;;;;;;;;;5023862;28;20052;-72
2021/12/11 03:28:41;;;;;;;15.75;8.23;;;;;;;;;;5023400;28;20045;-73
2021/12/11 03:31:07;;;;;;;13.93;8.18;;;;;;;;;;5005834;28;20026;-72
2021/12/11 03:33:42;;;;;;;13.57;7.90;;;;;;;;;;5023579;28;20034;-73
2021/12/11 03:36:10;;;;;;;13.15;7.93;;;;;;;;;;5006046;28;20112;-71
2021/12/11 03:38:40;;;;;;;15.80;8.45;;;;;;;;;;5023396;28;20025;-71
2021/12/11 03:41:07;;;;;;;14.40;8.70;;;;;;;;;;5023078;28;20129;-72
2021/12/11 03:43:34;;;;;;;14.88;8.27;;;;;;;;;;5022465;28;20251;-71
2021/12/11 03:46:08;;;;;;;13.38;7.70;;;;;;;;;;5023455;28;20032;-72
2021/12/11 03:48:38;;;;;;;12.05;7.88;;;;;;;;;;5022689;28;20060;-71
2021/12/11 03:51:07;;;;;;;13.15;7.32;;;;;;;;;;5023035;28;20038;-71
2021/12/11 03:53:33;;;;;;;14.57;7.88;;;;;;;;;;5005604;28;20026;-72
2021/12/11 03:56:01;;;;;;;21.17;8.20;;;;;;;;;;5023195;28;20056;-72
2021/12/11 03:58:27;;;;;;;17.92;7.65;;;;;;;;;;5005295;28;20053;-72
2021/12/11 04:00:59;;;;;;;50.67;8.90;;;;;;;;;;5005364;28;20030;-71
2021/12/11 04:03:30;;;;;;;46.00;8.52;;;;;;;;;;5023175;28;20031;-72
2021/12/11 04:05:56;;;;;;;14.25;7.65;;;;;;;;;;5023233;28;20033;-72
2021/12/11 04:08:27;;;;;;;13.80;8.63;;;;;;;;;;5023017;28;20034;-72
2021/12/11 04:10:53;;;;;;;23.73;8.70;;;;;;;;;;5005705;28;20030;-72
2021/12/11 04:13:20;;;;;;;15.00;8.07;;;;;;;;;;5005492;28;20038;-71
2021/12/11 04:15:52;;;;;;;21.27;7.70;;;;;;;;;;5023360;28;20030;-72
2021/12/11 04:18:18;;;;;;;19.92;7.93;;;;;;;;;;5022791;28;20496;-72
2021/12/11 04:20:47;;;;;;;17.48;8.65;;;;;;;;;;5022697;28;20042;-72
2021/12/11 04:23:14;;;;;;;20.02;8.98;;;;;;;;;;5022800;28;20029;-71
2021/12/11 04:25:43;;;;;;;17.27;9.18;;;;;;;;;;5022937;28;20038;-72
2021/12/11 04:28:10;;;;;;;15.95;8.75;;;;;;;;;;5023026;28;20029;-71
2021/12/11 04:30:37;;;;;;;22.50;8.40;;;;;;;;;;5004982;28;20028;-72
2021/12/11 04:33:03;;;;;;;17.20;9.18;;;;;;;;;;5022770;28;20034;-73
2021/12/11 04:35:30;;;;;;;22.50;8.80;;;;;;;;;;5023123;28;20041;-71
2021/12/11 04:38:03;;;;;;;14.38;8.25;;;;;;;;;;5022721;28;20386;-71
2021/12/11 04:40:33;;;;;;;16.07;8.73;;;;;;;;;;5022967;28;20034;-71
2021/12/11 04:43:08;;;;;;;12.52;7.28;;;;;;;;;;5023095;28;20616;-72
2021/12/11 04:45:39;;;;;;;13.23;8.13;;;;;;;;;;5022984;28;20471;-73
2021/12/11 04:48:17;;;;;;;14.50;7.68;;;;;;;;;;5022292;28;20058;-71
2021/12/11 04:50:52;;;;;;;15.45;8.32;;;;;;;;;;5023001;28;20072;-71
2021/12/11 04:53:37;;;;;;;14.02;8.00;;;;;;;;;;5023456;28;20061;-72
2021/12/11 05:06:45;;;;;;;15.98;8.05;;;;;;;;;;5026375;28;20048;-71
2021/12/11 05:09:26;;;;;;;22.75;8.15;;;;;;;;;;5026187;28;20026;-72
2021/12/11 05:14:42;;;;;;;16.88;8.43;;;;;;;;;;5026070;28;20274;-72
2021/12/11 05:17:08;;;;;;;17.65;8.65;;;;;;;;;;5026217;28;20682;-71
2021/12/11 05:19:34;;;;;;;23.45;9.75;;;;;;;;;;5025985;28;20495;-71
2021/12/11 05:22:01;;;;;;;18.42;8.25;;;;;;;;;;5026316;28;20041;-72
2021/12/11 05:24:27;;;;;;;25.52;7.95;;;;;;;;;;5025923;28;20045;-72
2021/12/11 05:26:53;;;;;;;14.15;7.57;;;;;;;;;;5026070;28;20038;-72
2021/12/11 05:29:18;;;;;;;15.13;8.85;;;;;;;;;;5025427;28;20029;-71
2021/12/11 05:31:45;;;;;;;14.27;7.85;;;;;;;;;;5025678;28;20034;-73
2021/12/11 05:34:10;;;;;;;15.23;8.15;;;;;;;;;;5025212;28;20034;-72
2021/12/11 05:36:37;;;;;;;18.73;8.98;;;;;;;;;;5007898;28;20044;-71
2021/12/11 05:39:10;;;;;;;18.80;9.15;;;;;;;;;;5025677;28;20042;-72
2021/12/11 05:41:37;;;;;;;21.70;7.85;;;;;;;;;;5025207;28;20048;-72
2021/12/11 05:44:04;;;;;;;17.17;9.27;;;;;;;;;;5007569;28;20538;-72
2021/12/11 05:46:29;;;;;;;20.48;9.25;;;;;;;;;;5025702;28;20450;-71
2021/12/11 05:48:56;;;;;;;20.77;8.30;;;;;;;;;;5024954;28;20146;-74
2021/12/11 05:51:23;;;;;;;27.98;8.10;;;;;;;;;;5025436;28;20576;-72
2021/12/11 05:53:59;;;;;;;28.42;9.02;;;;;;;;;;5025119;28;20510;-73
2021/12/11 05:56:25;;;;;;;20.38;8.27;;;;;;;;;;5007824;28;20486;-72
2021/12/11 06:01:20;;;;;;;38.33;8.73;;;;;;;;;;5025417;28;20026;-72
2021/12/11 06:03:46;;;;;;;41.13;9.50;;;;;;;;;;5024912;28;20037;-72
2021/12/11 06:06:12;;;;;;;40.47;9.13;;;;;;;;;;5006523;28;20473;-72
2021/12/11 06:08:37;;;;;;;25.67;9.40;;;;;;;;;;5006373;28;20038;-72
2021/12/11 06:11:05;;;;;;;32.75;8.93;;;;;;;;;;5024132;28;20050;-72
2021/12/11 06:13:30;;;;;;;30.00;9.43;;;;;;;;;;5007001;28;20550;-72
2021/12/11 06:15:57;;;;;;;24.45;8.75;;;;;;;;;;5024823;28;20130;-73
2021/12/11 06:18:24;;;;;;;37.85;9.48;;;;;;;;;;5007012;28;20041;-72
2021/12/11 06:20:49;;;;;;;37.47;9.23;;;;;;;;;;5024866;28;20030;-72
2021/12/11 06:23:16;;;;;;;36.38;9.05;;;;;;;;;;5024669;28;20060;-72
2021/12/11 06:25:42;;;;;;;32.47;8.35;;;;;;;;;;5024879;28;20477;-72
2021/12/11 06:28:08;;;;;;;29.50;9.77;;;;;;;;;;5024800;28;20037;-72
2021/12/11 06:30:35;;;;;;;28.65;8.30;;;;;;;;;;5024463;28;20108;-72
2021/12/11 06:33:00;;;;;;;29.55;8.35;;;;;;;;;;5006611;28;20026;-71
2021/12/11 06:35:33;;;;;;;25.60;9.45;;;;;;;;;;5024783;28;20529;-71
2021/12/11 06:37:59;;;;;;;33.55;8.38;;;;;;;;;;5024168;28;20038;-72
2021/12/11 06:40:26;;;;;;;32.25;8.90;;;;;;;;;;5024777;28;20033;-72
2021/12/11 06:42:52;;;;;;;35.30;8.52;;;;;;;;;;5024179;28;20397;-71
2021/12/11 06:45:20;;;;;;;30.05;8.70;;;;;;;;;;5006695;28;20065;-71
2021/12/11 06:47:45;;;;;;;29.85;9.15;;;;;;;;;;5024107;28;20154;-72
2021/12/11 06:50:11;;;;;;;42.20;9.38;;;;;;;;;;5006514;28;20078;-73
2021/12/11 06:52:37;;;;;;;36.85;9.55;;;;;;;;;;5024140;28;20041;-72
2021/12/11 06:55:05;;;;;;;30.48;9.45;;;;;;;;;;5024300;28;20029;-72
2021/12/11 06:57:31;;;;;;;35.63;9.52;;;;;;;;;;5024056;28;20088;-73
2021/12/11 06:59:57;;;;;;;33.95;9.27;;;;;;;;;;5006737;28;20034;-71
2021/12/11 07:02:23;;;;;;;47.70;10.32;;;;;;;;;;5005906;28;20026;-72
2021/12/11 07:04:49;;;;;;;56.78;10.43;;;;;;;;;;5023873;28;20030;-71
2021/12/11 07:07:21;;;;;;;43.63;10.60;;;;;;;;;;5023526;28;20030;-72
2021/12/11 07:09:47;;;;;;;43.78;10.15;;;;;;;;;;5006199;28;20033;-71
2021/12/11 07:12:13;;;;;;;24.20;10.45;;;;;;;;;;5023262;28;20038;-73
2021/12/11 07:14:39;;;;;;;25.42;10.68;;;;;;;;;;5023625;28;20056;-72
2021/12/11 07:17:06;;;;;;;37.10;10.48;;;;;;;;;;5023569;28;20061;-71
2021/12/11 07:19:32;;;;;;;46.22;10.60;;;;;;;;;;5023779;28;20136;-72
2021/12/11 07:21:57;;;;;;;26.45;10.88;;;;;;;;;;5023705;28;20030;-72
2021/12/11 07:24:32;;;;;;;30.80;10.13;;;;;;;;;;5023849;28;20026;-71
2021/12/11 07:27:00;;;;;;;20.67;10.40;;;;;;;;;;5023827;28;20026;-71
2021/12/11 07:29:26;;;;;;;20.00;10.30;;;;;;;;;;5005946;28;20022;-72
2021/12/11 07:31:53;;;;;;;18.88;10.73;;;;;;;;;;5023224;28;20068;-72
2021/12/11 07:34:20;;;;;;;22.13;10.63;;;;;;;;;;5023267;28;20030;-72
2021/12/11 07:36:47;;;;;;;22.45;11.30;;;;;;;;;;5023597;28;20037;-72
2021/12/11 07:39:15;;;;;;;22.63;12.35;;;;;;;;;;5005714;28;20112;-72
2021/12/11 07:41:41;;;;;;;23.17;12.75;;;;;;;;;;5023862;28;20034;-72
2021/12/11 07:44:07;;;;;;;23.90;13.30;;;;;;;;;;5005354;28;20030;-72
2021/12/11 07:46:34;;;;;;;25.35;13.80;;;;;;;;;;5005710;28;20053;-71
2021/12/11 07:49:02;;;;;;;26.83;14.13;;;;;;;;;;5023358;28;20034;-71
2021/12/11 07:51:28;;;;;;;28.25;15.00;;;;;;;;;;5005786;28;20054;-71
2021/12/11 07:53:55;;;;;;;28.35;14.65;;;;;;;;;;5005229;28;20055;-74
2021/12/11 07:56:21;;;;;;;28.77;14.65;;;;;;;;;;5023696;28;20034;-72
2021/12/11 07:58:49;;;;;;;28.30;15.55;;;;;;;;;;5023289;28;20061;-73
2021/12/11 08:01:15;;;;;;;28.88;14.80;;;;;;;;;;5023188;28;20030;-72
2021/12/11 08:03:41;;;;;;;29.45;15.75;;;;;;;;;;5022964;28;20034;-72
2021/12/11 08:06:09;;;;;;;29.10;15.32;;;;;;;;;;5023489;28;20045;-72
2021/12/11 08:08:37;;;;;;;28.67;15.98;;;;;;;;;;5023018;28;20030;-71
2021/12/11 08:11:11;;;;;;;28.25;16.15;;;;;;;;;;5023379;28;20025;-72
2021/12/11 08:13:37;;;;;;;31.38;15.90;;;;;;;;;;5022985;28;20084;-72
2021/12/11 08:16:03;;;;;;;28.80;16.40;;;;;;;;;;5023175;28;20021;-72
2021/12/11 08:18:28;;;;;;;29.63;16.85;;;;;;;;;;5022980;28;20036;-72
2021/12/11 08:20:54;;;;;;;31.58;16.65;;;;;;;;;;5005202;28;20327;-73
2021/12/11 08:23:20;;;;;;;30.70;16.98;;;;;;;;;;5022764;28;20030;-71
2021/12/11 08:25:47;;;;;;;31.38;16.30;;;;;;;;;;5022687;28;20026;-73
2021/12/11 08:28:16;;;;;;;31.85;17.02;;;;;;;;;;5023474;28;20038;-72
2021/12/11 08:30:44;;;;;;;30.73;16.70;;;;;;;;;;5026632;28;20042;-73
2021/12/11 08:33:10;;;;;;;33.25;17.15;;;;;;;;;;5008849;28;20026;-72
2021/12/11 08:35:36;;;;;;;33.80;17.05;;;;;;;;;;5009343;28;20087;-74
2021/12/11 08:38:04;;;;;;;31.23;16.25;;;;;;;;;;5026722;28;20033;-71
2021/12/11 08:40:32;;;;;;;27.65;16.38;;;;;;;;;;5026930;28;20037;-72
2021/12/11 08:42:59;;;;;;;30.08;16.10;;;;;;;;;;5025683;28;20049;-72
2021/12/11 08:45:43;;;;;;;27.33;16.70;;;;;;;;;;5007481;28;20033;-72
2021/12/11 08:48:10;;;;;;;30.35;16.35;;;;;;;;;;5025572;28;20053;-72
2021/12/11 08:50:35;;;;;;;28.63;15.77;;;;;;;;;;5026014;28;20045;-71
2021/12/11 08:53:01;;;;;;;31.75;15.55;;;;;;;;;;5026484;28;20038;-72
2021/12/11 08:55:33;;;;;;;29.00;15.38;;;;;;;;;;5026503;28;20045;-73
2021/12/11 08:58:00;;;;;;;28.15;14.05;;;;;;;;;;5024208;28;20026;-72
2021/12/11 09:00:31;;;;;;;28.55;15.40;;;;;;;;;;5008579;28;20030;-71
2021/12/11 09:03:17;;;;;;;26.60;14.52;;;;;;;;;;5026422;28;20568;-71
2021/12/11 09:05:49;;;;;;;28.20;14.93;;;;;;;;;;5008599;28;20038;-72
2021/12/11 09:08:21;;;;;;;26.65;14.82;;;;;;;;;;5006475;28;20026;-72
2021/12/11 09:10:57;;;;;;;27.88;15.20;;;;;;;;;;5024421;28;20026;-72
2021/12/11 09:13:35;;;;;;;26.02;14.50;;;;;;;;;;5024356;28;20183;-71
2021/12/11 09:16:25;;;;;;;27.92;15.48;;;;;;;;;;5024489;28;20558;-73
2021/12/11 09:18:56;;;;;;;26.75;16.00;;;;;;;;;;5025805;28;20026;-72
2021/12/11 09:21:26;;;;;;;30.38;14.88;;;;;;;;;;5007504;28;20537;-72
2021/12/11 09:24:04;;;;;;;27.98;14.73;;;;;;;;;;5023613;28;20038;-73
2021/12/11 09:26:44;;;;;;;29.95;15.35;;;;;;;;;;5023468;28;20018;-72
2021/12/11 09:29:35;;;;;;;26.02;14.55;;;;;;;;;;5024904;28;20026;-71
2021/12/11 09:32:14;;;;;;;26.73;14.70;;;;;;;;;;5025851;28;20060;-72
2021/12/11 09:35:02;;;;;;;25.88;14.60;;;;;;;;;;5025526;28;20025;-72
2021/12/11 09:37:29;;;;;;;27.90;15.23;;;;;;;;;;5025471;28;20034;-72
2021/12/11 09:40:12;;;;;;;28.83;15.55;;;;;;;;;;5008030;28;20026;-72
2021/12/11 09:42:37;;;;;;;26.45;13.90;;;;;;;;;;5007747;28;20034;-72
2021/12/11 09:45:20;;;;;;;28.35;14.95;;;;;;;;;;5007731;28;20041;-73
2021/12/11 09:47:52;;;;;;;27.65;15.20;;;;;;;;;;5025562;28;20153;-72
2021/12/11 09:50:24;;;;;;;30.30;14.85;;;;;;;;;;5025564;28;20034;-73
2021/12/11 09:52:50;;;;;;;29.10;15.55;;;;;;;;;;5025445;28;20026;-72
2021/12/11 09:55:21;;;;;;;30.73;15.40;;;;;;;;;;5025094;28;20037;-71
2021/12/11 09:57:53;;;;;;;28.90;16.00;;;;;;;;;;5025175;28;20030;-71
2021/12/11 10:00:50;;;;;;;32.92;15.63;;;;;;;;;;5025314;28;20034;-72
2021/12/11 10:03:20;;;;;;;26.88;14.32;;;;;;;;;;4996329;28;20042;-73
2021/12/11 10:05:56;;;;;;;28.73;15.10;;;;;;;;;;5025289;28;20026;-71
2021/12/11 10:08:37;;;;;;;27.42;14.80;;;;;;;;;;5024800;28;20034;-71
2021/12/11 10:11:11;;;;;;;30.02;14.50;;;;;;;;;;5006865;28;20232;-72
2021/12/11 10:13:39;;;;;;;;;;;;;;;;;;5024609;28;20034;-72
2021/12/11 10:16:05;;;;;;;24.67;13.27;;;;;;;;;;5024491;28;19920;-71
2021/12/11 10:18:34;;;;;;;27.13;14.57;;;;;;;;;;5023889;28;20601;-74
2021/12/11 10:21:15;;;;;;;25.80;14.63;;;;;;;;;;5024272;28;20084;-71
2021/12/11 10:23:44;;;;;;;29.25;15.00;;;;;;;;;;5024177;28;20033;-72
2021/12/11 10:26:11;;;;;;;28.83;15.07;;;;;;;;;;5023639;28;20061;-71
2021/12/11 10:28:44;;;;;;;26.40;14.50;;;;;;;;;;5024033;28;20026;-72
2021/12/11 10:31:14;;;;;;;27.15;14.15;;;;;;;;;;5024542;28;20081;-73
2021/12/11 10:33:40;;;;;;;27.63;13.95;;;;;;;;;;5024126;28;20030;-71
2021/12/11 10:36:12;;;;;;;26.55;14.57;;;;;;;;;;5024641;28;20017;-72
2021/12/11 10:38:43;;;;;;;27.42;13.82;;;;;;;;;;5007002;28;20037;-72
2021/12/11 10:41:11;;;;;;;27.33;14.75;;;;;;;;;;5024712;28;20030;-72
2021/12/11 10:43:42;;;;;;;29.85;15.65;;;;;;;;;;5024341;28;20164;-73
2021/12/11 10:46:11;;;;;;;29.65;14.55;;;;;;;;;;5024311;28;20615;-72
2021/12/11 10:48:37;;;;;;;29.65;14.93;;;;;;;;;;5024292;28;20105;-72
2021/12/11 10:51:15;;;;;;;28.23;15.88;;;;;;;;;;5024326;28;20026;-72
2021/12/11 10:53:42;;;;;;;28.58;13.85;;;;;;;;;;5024019;28;20037;-72
2021/12/11 10:56:09;;;;;;;31.70;14.70;;;;;;;;;;5024193;28;20467;-72
2021/12/11 10:58:48;;;;;;;31.10;14.77;;;;;;;;;;5005603;28;20053;-72
2021/12/11 11:01:43;;;;;;;27.20;14.77;;;;;;;;;;5006207;28;20367;-72
2021/12/11 11:04:13;;;;;;;29.23;14.25;;;;;;;;;;5021568;28;20402;-72
2021/12/11 11:06:40;;;;;;;28.77;15.23;;;;;;;;;;5024093;28;20436;-71
2021/12/11 11:09:08;;;;;;;32.00;15.95;;;;;;;;;;5023280;28;20052;-72
2021/12/11 11:11:35;;;;;;;34.42;16.48;;;;;;;;;;5024141;28;20057;-73
2021/12/11 11:14:02;;;;;;;31.58;15.95;;;;;;;;;;5006016;28;20029;-73
2021/12/11 11:16:28;;;;;;;33.40;17.25;;;;;;;;;;5024021;28;20029;-72
2021/12/11 11:18:54;;;;;;;34.60;16.63;;;;;;;;;;5023886;28;20089;-73
2021/12/11 11:21:36;;;;;;;35.67;16.75;;;;;;;;;;5023859;28;20057;-72
2021/12/11 11:24:05;;;;;;;30.05;16.55;;;;;;;;;;5006080;28;20026;-72
2021/12/11 11:26:34;;;;;;;30.23;15.52;;;;;;;;;;5006190;28;20359;-73
2021/12/11 11:29:03;;;;;;;32.20;15.63;;;;;;;;;;5023441;28;20026;-73
2021/12/11 11:31:36;;;;;;;31.33;14.40;;;;;;;;;;5022819;28;20089;-71
2021/12/11 11:34:08;;;;;;;30.93;13.70;;;;;;;;;;5023901;28;20030;-72
2021/12/11 11:36:35;;;;;;;29.73;14.32;;;;;;;;;;5023585;28;20030;-71
2021/12/11 11:39:06;;;;;;;27.10;13.52;;;;;;;;;;5004885;28;20022;-72
2021/12/11 11:41:44;;;;;;;30.05;13.93;;;;;;;;;;5023666;28;20033;-73
2021/12/11 11:44:11;;;;;;;28.35;15.00;;;;;;;;;;5023632;28;20493;-73
2021/12/11 11:46:38;;;;;;;30.40;14.98;;;;;;;;;;5023711;28;20564;-72
2021/12/11 11:49:06;;;;;;;33.63;14.45;;;;;;;;;;5023283;28;20052;-72
2021/12/11 11:51:43;;;;;;;31.63;14.02;;;;;;;;;;5023554;28;20049;-72
2021/12/11 11:54:11;;;;;;;29.60;13.48;;;;;;;;;;5023478;28;20113;-72
2021/12/11 11:56:44;;;;;;;30.35;15.55;;;;;;;;;;5023405;28;20048;-73
2021/12/11 11:59:11;;;;;;;28.10;13.57;;;;;;;;;;5023435;28;20124;-72
2021/12/11 12:01:43;;;;;;;27.33;14.10;;;;;;;;;;5005681;28;20080;-72
2021/12/11 12:04:15;;;;;;;27.13;14.32;;;;;;;;;;5022409;28;20029;-73
2021/12/11 12:06:42;;;;;;;29.83;14.20;;;;;;;;;;5005510;28;20040;-72
2021/12/11 12:09:11;;;;;;;30.60;14.25;;;;;;;;;;5005399;28;20034;-72
2021/12/11 12:11:39;;;;;;;27.90;12.80;;;;;;;;;;5005341;28;20026;-72
2021/12/11 12:14:09;;;;;;;25.08;12.80;;;;;;;;;;5023084;28;20034;-73
2021/12/11 12:16:36;;;;;;;30.92;14.32;;;;;;;;;;5022831;28;20529;-72
2021/12/11 12:19:02;;;;;;;25.30;13.27;;;;;;;;;;5005371;28;20030;-72
2021/12/11 12:21:29;;;;;;;28.92;14.57;;;;;;;;;;5023438;28;20030;-72
2021/12/11 12:23:54;;;;;;;26.40;13.77;;;;;;;;;;5005333;28;20096;-72
2021/12/11 12:26:23;;;;;;;21.60;11.60;;;;;;;;;;5005529;28;20041;-74
2021/12/11 12:28:51;;;;;;;22.17;11.45;;;;;;;;;;5021692;28;20417;-71
2021/12/11 12:31:43;;;;;;;22.10;11.30;;;;;;;;;;5022508;28;20586;-73
2021/12/11 12:34:10;;;;;;;21.98;11.00;;;;;;;;;;5023268;28;20062;-73
2021/12/11 12:36:41;;;;;;;24.33;11.85;;;;;;;;;;5005753;28;20033;-73
2021/12/11 12:39:08;;;;;;;19.27;10.20;;;;;;;;;;5022991;28;20093;-73
2021/12/11 12:41:44;;;;;;;19.05;10.55;;;;;;;;;;5005295;28;20091;-72
2021/12/11 12:44:19;;;;;;;20.85;11.27;;;;;;;;;;5005236;28;20049;-72
2021/12/11 12:47:07;;;;;;;22.20;11.00;;;;;;;;;;5022902;28;20311;-72
2021/12/11 12:49:35;;;;;;;20.17;11.18;;;;;;;;;;5004772;28;20045;-72
2021/12/11 12:52:08;;;;;;;19.35;9.93;;;;;;;;;;5023211;28;20045;-72
2021/12/11 12:54:34;;;;;;;21.23;10.70;;;;;;;;;;5023313;28;20030;-73
2021/12/11 12:57:18;;;;;;;21.50;11.20;;;;;;;;;;5023402;28;20026;-72
2021/12/11 12:59:53;;;;;;;24.42;12.80;;;;;;;;;;5023937;28;20026;-71
2021/12/11 13:02:21;;;;;;;24.23;11.57;;;;;;;;;;5015423;28;20030;-71
2021/12/11 13:04:54;;;;;;;24.30;12.07;;;;;;;;;;5023560;28;20037;-72
2021/12/11 13:07:20;;;;;;;24.08;11.82;;;;;;;;;;5023453;28;20034;-71
2021/12/11 13:09:55;;;;;;;25.40;12.40;;;;;;;;;;5023512;28;20041;-74
2021/12/11 13:12:43;;;;;;;22.70;11.70;;;;;;;;;;5023110;28;20113;-74
2021/12/11 13:15:20;;;;;;;25.05;11.52;;;;;;;;;;5025293;28;20030;-73
2021/12/11 13:17:48;;;;;;;24.60;11.93;;;;;;;;;;5009111;28;20475;-73
2021/12/11 13:20:22;;;;;;;22.80;12.30;;;;;;;;;;5026659;28;20604;-73
2021/12/11 13:22:48;;;;;;;;;;;;;;;;;;5007907;28;20113;-70
2021/12/11 13:25:29;;;;;;;34.13;11.27;;;;;;;;;;5025555;28;19917;-75
2021/12/11 13:27:59;;;;;;;30.10;12.02;;;;;;;;;;5024869;28;20022;-73
2021/12/11 13:30:30;;;;;;;26.83;12.23;;;;;;;;;;5026253;28;20030;-73
2021/12/11 13:32:57;;;;;;;58.45;10.68;;;;;;;;;;5008300;28;20038;-73
2021/12/11 13:35:27;;;;;;;98.25;11.07;;;;;;;;;;5026095;28;20038;-74
2021/12/11 13:37:53;;;;;;;106.68;10.73;;;;;;;;;;5025990;28;20073;-73
2021/12/11 13:40:21;;;;;;;142.10;10.57;;;;;;;;;;5026105;28;20025;-72
2021/12/11 13:42:48;;;;;;;154.55;11.55;;;;;;;;;;5025713;28;20045;-73
2021/12/11 13:45:25;;;;;;;170.77;11.95;;;;;;;;;;5025804;28;20057;-73
2021/12/11 13:47:52;;;;;;;78.50;10.98;;;;;;;;;;5025474;28;20053;-72
2021/12/11 13:50:27;;;;;;;80.80;10.88;;;;;;;;;;5026233;28;20022;-73
2021/12/11 13:52:52;;;;;;;97.70;9.95;;;;;;;;;;5025470;28;20022;-73
2021/12/11 13:55:19;;;;;;;82.40;9.88;;;;;;;;;;5008170;28;20037;-72
2021/12/11 13:57:44;;;;;;;81.95;10.60;;;;;;;;;;5025653;28;20029;-72
2021/12/11 14:00:25;;;;;;;75.18;11.80;;;;;;;;;;5008086;28;20034;-74
2021/12/11 14:02:51;;;;;;;51.95;9.80;;;;;;;;;;5025365;28;20034;-73
2021/12/11 14:05:17;;;;;;;56.22;11.57;;;;;;;;;;5025619;28;20034;-73
2021/12/11 14:07:42;;;;;;;30.10;11.50;;;;;;;;;;5025289;28;20072;-72
2021/12/11 14:10:27;;;;;;;23.23;11.93;;;;;;;;;;5025631;28;20089;-73
2021/12/11 14:12:53;;;;;;;28.67;13.77;;;;;;;;;;5025276;28;20018;-72
2021/12/11 14:15:19;;;;;;;26.05;12.65;;;;;;;;;;5017445;28;20470;-72
2021/12/11 14:17:46;;;;;;;22.90;11.70;;;;;;;;;;5024922;28;20038;-74
2021/12/11 14:20:13;;;;;;;27.95;13.15;;;;;;;;;;5025236;28;20034;-72
2021/12/11 14:22:39;;;;;;;27.42;12.77;;;;;;;;;;5025367;28;20025;-73
2021/12/11 14:25:07;;;;;;;26.38;12.65;;;;;;;;;;5025258;28;20657;-73
2021/12/11 14:27:33;;;;;;;26.65;13.60;;;;;;;;;;5024266;28;20121;-73
2021/12/11 14:29:59;;;;;;;30.13;14.13;;;;;;;;;;5025008;28;20056;-73
2021/12/11 14:32:28;;;;;;;33.97;14.80;;;;;;;;;;5024898;28;20058;-73
2021/12/11 14:34:55;;;;;;;35.03;15.20;;;;;;;;;;5007356;28;20045;-73
2021/12/11 14:37:21;;;;;;;33.55;15.30;;;;;;;;;;5007279;28;20242;-72
2021/12/11 14:39:48;;;;;;;28.65;13.60;;;;;;;;;;5007367;28;20092;-72
2021/12/11 14:42:20;;;;;;;29.50;14.68;;;;;;;;;;5007081;28;20042;-74
2021/12/11 14:44:48;;;;;;;30.25;14.45;;;;;;;;;;5025089;28;20029;-73
2021/12/11 14:47:14;;;;;;;26.83;13.88;;;;;;;;;;5024965;28;20052;-73
2021/12/11 14:49:43;;;;;;;27.55;14.18;;;;;;;;;;5006879;28;20072;-72
2021/12/11 14:52:13;;;;;;;35.35;14.85;;;;;;;;;;5024513;28;20032;-72
2021/12/11 14:54:40;;;;;;;33.45;15.82;;;;;;;;;;5025092;28;20033;-72
2021/12/11 14:57:07;;;;;;;28.65;15.07;;;;;;;;;;5024559;28;20033;-73
2021/12/11 14:59:41;;;;;;;28.65;13.68;;;;;;;;;;5024920;28;20026;-74
2021/12/11 15:02:34;;;;;;;29.20;13.65;;;;;;;;;;5006743;28;20040;-73